LGKV/KVA METAR and TAF weather

Enter ICAO airport designator
Station Type Date Time Source
LGKV METAR 2021/05/09 18:20 UTC NOAA

LGKV 091820Z 00000KT 9999 FEW030 16/10 Q1023


Station Type Date Time Source
LGKV Decoded METAR 2021/05/09 18:20 UTC NOAA

Chrysoupoli Airport , Greece (LGKV) 40-59N 024-36E 5M
May 09, 2021 - 02:20 PM EDT / 2021.05.09 1820 UTC
Wind: Calm:0
Visibility: greater than 7 mile(s):0
Sky conditions: mostly clear
Temperature: 60 F (16 C)
Dew Point: 50 F (10 C)
Relative Humidity: 67%
Pressure (altimeter): 30.21 in. Hg (1023 hPa)
ob: LGKV 091820Z 00000KT 9999 FEW030 16/10 Q1023
cycle: 18

Station Type Date Time Source
LGKV TAF 2021/05/09 18:12 UTC NOAA

TAF LGKV 091700Z 0918/1018 07010KT 9999 FEW030 SCT080
BECMG 0921/0923 FEW030
BECMG 1012/1014 VRB03KT

Example: see airport list